sensor_id;sensor_type;location;lat;lon;timestamp;temperature;humidity
20231;DHT22;10274;49.022;9.338;2022-07-17T00:02:23;13.00;1.00
20231;DHT22;10274;49.022;9.338;2022-07-17T00:04:51;13.00;1.00
20231;DHT22;10274;49.022;9.338;2022-07-17T00:07:18;12.90;1.00
20231;DHT22;10274;49.022;9.338;2022-07-17T00:09:45;12.90;1.00
20231;DHT22;10274;49.022;9.338;2022-07-17T00:12:11;12.90;1.00
20231;DHT22;10274;49.022;9.338;2022-07-17T00:14:38;12.70;1.00
20231;DHT22;10274;49.022;9.338;2022-07-17T00:17:05;12.70;1.00
20231;DHT22;10274;49.022;9.338;2022-07-17T00:19:31;12.60;1.00
20231;DHT22;10274;49.022;9.338;2022-07-17T00:22:00;12.60;1.00
20231;DHT22;10274;49.022;9.338;2022-07-17T00:24:26;12.60;1.00
20231;DHT22;10274;49.022;9.338;2022-07-17T00:26:53;12.40;1.00
20231;DHT22;10274;49.022;9.338;2022-07-17T00:29:20;12.50;1.00
20231;DHT22;10274;49.022;9.338;2022-07-17T00:31:47;12.40;1.00
20231;DHT22;10274;49.022;9.338;2022-07-17T00:34:13;12.30;1.00
20231;DHT22;10274;49.022;9.338;2022-07-17T00:36:40;12.30;1.00
20231;DHT22;10274;49.022;9.338;2022-07-17T00:39:09;12.40;1.00
20231;DHT22;10274;49.022;9.338;2022-07-17T00:41:36;12.40;1.00
20231;DHT22;10274;49.022;9.338;2022-07-17T00:44:03;12.50;1.00
20231;DHT22;10274;49.022;9.338;2022-07-17T00:46:30;12.40;1.00
20231;DHT22;10274;49.022;9.338;2022-07-17T00:48:57;12.50;1.00
20231;DHT22;10274;49.022;9.338;2022-07-17T00:51:24;12.40;1.00
20231;DHT22;10274;49.022;9.338;2022-07-17T00:53:51;12.50;1.00
20231;DHT22;10274;49.022;9.338;2022-07-17T00:56:21;12.50;1.00
20231;DHT22;10274;49.022;9.338;2022-07-17T00:58:49;12.60;1.00
20231;DHT22;10274;49.022;9.338;2022-07-17T01:01:17;12.60;1.00
20231;DHT22;10274;49.022;9.338;2022-07-17T01:03:43;12.60;1.00
20231;DHT22;10274;49.022;9.338;2022-07-17T01:06:10;12.60;1.00
20231;DHT22;10274;49.022;9.338;2022-07-17T01:08:37;12.60;1.00
20231;DHT22;10274;49.022;9.338;2022-07-17T01:11:05;12.50;1.00
20231;DHT22;10274;49.022;9.338;2022-07-17T01:13:35;12.30;1.00
20231;DHT22;10274;49.022;9.338;2022-07-17T01:16:03;12.10;1.00
20231;DHT22;10274;49.022;9.338;2022-07-17T01:18:29;12.00;1.00
20231;DHT22;10274;49.022;9.338;2022-07-17T01:21:02;12.10;1.00
20231;DHT22;10274;49.022;9.338;2022-07-17T01:23:29;11.80;1.00
20231;DHT22;10274;49.022;9.338;2022-07-17T01:25:56;11.90;1.00
20231;DHT22;10274;49.022;9.338;2022-07-17T01:28:22;11.70;1.00
20231;DHT22;10274;49.022;9.338;2022-07-17T01:30:51;11.90;1.00
20231;DHT22;10274;49.022;9.338;2022-07-17T01:33:19;12.10;1.00
20231;DHT22;10274;49.022;9.338;2022-07-17T01:35:46;12.10;1.00
20231;DHT22;10274;49.022;9.338;2022-07-17T01:38:14;11.80;1.00
20231;DHT22;10274;49.022;9.338;2022-07-17T01:40:40;11.90;1.00
20231;DHT22;10274;49.022;9.338;2022-07-17T01:43:07;11.20;1.00
20231;DHT22;10274;49.022;9.338;2022-07-17T01:45:34;11.40;1.00
20231;DHT22;10274;49.022;9.338;2022-07-17T01:48:01;11.20;1.00
20231;DHT22;10274;49.022;9.338;2022-07-17T01:50:27;11.40;1.00
20231;DHT22;10274;49.022;9.338;2022-07-17T01:52:54;11.10;1.00
20231;DHT22;10274;49.022;9.338;2022-07-17T01:55:22;11.40;1.00
20231;DHT22;10274;49.022;9.338;2022-07-17T01:57:49;11.40;1.00
20231;DHT22;10274;49.022;9.338;2022-07-17T02:00:17;11.40;1.00
20231;DHT22;10274;49.022;9.338;2022-07-17T02:02:44;11.40;1.00
20231;DHT22;10274;49.022;9.338;2022-07-17T02:05:11;11.40;1.00
20231;DHT22;10274;49.022;9.338;2022-07-17T02:07:38;11.40;1.00
20231;DHT22;10274;49.022;9.338;2022-07-17T02:10:07;11.40;1.00
20231;DHT22;10274;49.022;9.338;2022-07-17T02:12:35;11.40;1.00
20231;DHT22;10274;49.022;9.338;2022-07-17T02:15:03;11.30;1.00
20231;DHT22;10274;49.022;9.338;2022-07-17T02:17:30;11.20;1.00
20231;DHT22;10274;49.022;9.338;2022-07-17T02:19:56;11.20;1.00
20231;DHT22;10274;49.022;9.338;2022-07-17T02:22:23;11.10;1.00
20231;DHT22;10274;49.022;9.338;2022-07-17T02:24:49;11.20;1.00
20231;DHT22;10274;49.022;9.338;2022-07-17T02:27:16;11.20;1.00
20231;DHT22;10274;49.022;9.338;2022-07-17T02:29:44;11.20;1.00
20231;DHT22;10274;49.022;9.338;2022-07-17T02:32:11;11.10;1.00
20231;DHT22;10274;49.022;9.338;2022-07-17T02:34:37;11.10;1.00
20231;DHT22;10274;49.022;9.338;2022-07-17T02:37:04;11.10;1.00
20231;DHT22;10274;49.022;9.338;2022-07-17T02:39:31;11.10;1.00
20231;DHT22;10274;49.022;9.338;2022-07-17T02:41:57;11.10;1.00
20231;DHT22;10274;49.022;9.338;2022-07-17T02:44:24;11.00;1.00
20231;DHT22;10274;49.022;9.338;2022-07-17T02:46:52;10.90;1.00
20231;DHT22;10274;49.022;9.338;2022-07-17T02:49:19;10.90;1.00
20231;DHT22;10274;49.022;9.338;2022-07-17T02:51:45;10.90;1.00
20231;DHT22;10274;49.022;9.338;2022-07-17T02:54:12;11.00;1.00
20231;DHT22;10274;49.022;9.338;2022-07-17T02:56:39;11.00;1.00
20231;DHT22;10274;49.022;9.338;2022-07-17T02:59:05;11.00;1.00
20231;DHT22;10274;49.022;9.338;2022-07-17T03:01:32;10.70;1.00
20231;DHT22;10274;49.022;9.338;2022-07-17T03:04:00;10.80;1.00
20231;DHT22;10274;49.022;9.338;2022-07-17T03:06:27;10.90;1.00
20231;DHT22;10274;49.022;9.338;2022-07-17T03:08:53;11.00;1.00
20231;DHT22;10274;49.022;9.338;2022-07-17T03:11:20;11.10;1.00
20231;DHT22;10274;49.022;9.338;2022-07-17T03:13:46;11.20;1.00
20231;DHT22;10274;49.022;9.338;2022-07-17T03:16:13;11.10;1.00
20231;DHT22;10274;49.022;9.338;2022-07-17T03:18:40;11.00;1.00
20231;DHT22;10274;49.022;9.338;2022-07-17T03:21:08;10.80;1.00
20231;DHT22;10274;49.022;9.338;2022-07-17T03:23:34;10.50;1.00
20231;DHT22;10274;49.022;9.338;2022-07-17T03:26:01;10.30;1.00
20231;DHT22;10274;49.022;9.338;2022-07-17T03:28:28;10.40;1.00
20231;DHT22;10274;49.022;9.338;2022-07-17T03:30:54;10.40;4.10
20231;DHT22;10274;49.022;9.338;2022-07-17T03:33:21;10.40;3.30
20231;DHT22;10274;49.022;9.338;2022-07-17T03:35:48;10.30;3.10
20231;DHT22;10274;49.022;9.338;2022-07-17T03:38:15;10.20;2.70
20231;DHT22;10274;49.022;9.338;2022-07-17T03:40:42;10.30;9.70
20231;DHT22;10274;49.022;9.338;2022-07-17T03:43:09;10.50;1.00
20231;DHT22;10274;49.022;9.338;2022-07-17T03:45:35;10.60;1.00
20231;DHT22;10274;49.022;9.338;2022-07-17T03:48:02;10.60;1.00
20231;DHT22;10274;49.022;9.338;2022-07-17T03:50:29;10.70;1.00
20231;DHT22;10274;49.022;9.338;2022-07-17T03:52:56;10.70;1.00
20231;DHT22;10274;49.022;9.338;2022-07-17T03:55:24;10.40;1.00
20231;DHT22;10274;49.022;9.338;2022-07-17T03:57:50;10.20;1.00
20231;DHT22;10274;49.022;9.338;2022-07-17T04:00:18;10.10;4.90
20231;DHT22;10274;49.022;9.338;2022-07-17T04:02:45;10.20;7.90
20231;DHT22;10274;49.022;9.338;2022-07-17T04:05:11;10.20;21.00
20231;DHT22;10274;49.022;9.338;2022-07-17T04:07:38;10.40;1.00
20231;DHT22;10274;49.022;9.338;2022-07-17T04:10:07;10.50;1.00
20231;DHT22;10274;49.022;9.338;2022-07-17T04:12:35;10.60;1.00
20231;DHT22;10274;49.022;9.338;2022-07-17T04:15:03;10.50;1.00
20231;DHT22;10274;49.022;9.338;2022-07-17T04:17:30;10.60;1.00
20231;DHT22;10274;49.022;9.338;2022-07-17T04:19:57;10.60;1.00
20231;DHT22;10274;49.022;9.338;2022-07-17T04:22:24;10.50;2.20
20231;DHT22;10274;49.022;9.338;2022-07-17T04:24:50;10.40;1.00
20231;DHT22;10274;49.022;9.338;2022-07-17T04:27:17;10.20;10.70
20231;DHT22;10274;49.022;9.338;2022-07-17T04:29:45;10.20;23.80
20231;DHT22;10274;49.022;9.338;2022-07-17T04:32:12;10.30;25.30
20231;DHT22;10274;49.022;9.338;2022-07-17T04:34:39;10.30;16.70
20231;DHT22;10274;49.022;9.338;2022-07-17T04:37:06;10.30;26.20
20231;DHT22;10274;49.022;9.338;2022-07-17T04:39:33;10.40;26.10
20231;DHT22;10274;49.022;9.338;2022-07-17T04:41:59;10.50;26.80
20231;DHT22;10274;49.022;9.338;2022-07-17T04:44:26;10.60;23.00
20231;DHT22;10274;49.022;9.338;2022-07-17T04:46:54;10.70;21.60
20231;DHT22;10274;49.022;9.338;2022-07-17T04:49:22;10.70;18.20
20231;DHT22;10274;49.022;9.338;2022-07-17T04:51:48;10.70;14.40
20231;DHT22;10274;49.022;9.338;2022-07-17T04:54:15;10.70;15.10
20231;DHT22;10274;49.022;9.338;2022-07-17T04:56:41;10.90;13.70
20231;DHT22;10274;49.022;9.338;2022-07-17T04:59:08;10.90;23.60
20231;DHT22;10274;49.022;9.338;2022-07-17T05:01:35;10.90;23.10
20231;DHT22;10274;49.022;9.338;2022-07-17T05:04:03;11.00;29.80
20231;DHT22;10274;49.022;9.338;2022-07-17T05:06:30;11.00;20.60
20231;DHT22;10274;49.022;9.338;2022-07-17T05:08:56;11.10;40.20
20231;DHT22;10274;49.022;9.338;2022-07-17T05:11:23;11.00;35.60
20231;DHT22;10274;49.022;9.338;2022-07-17T05:13:50;11.10;53.80
20231;DHT22;10274;49.022;9.338;2022-07-17T05:16:16;11.20;36.00
20231;DHT22;10274;49.022;9.338;2022-07-17T05:18:43;11.40;27.40
20231;DHT22;10274;49.022;9.338;2022-07-17T05:21:11;11.70;33.30
20231;DHT22;10274;49.022;9.338;2022-07-17T05:23:39;11.90;13.10
20231;DHT22;10274;49.022;9.338;2022-07-17T05:26:06;12.10;1.00
20231;DHT22;10274;49.022;9.338;2022-07-17T05:28:33;12.20;1.00
20231;DHT22;10274;49.022;9.338;2022-07-17T05:30:59;12.50;28.80
20231;DHT22;10274;49.022;9.338;2022-07-17T05:33:26;12.70;42.70
20231;DHT22;10274;49.022;9.338;2022-07-17T05:35:53;12.70;7.20
20231;DHT22;10274;49.022;9.338;2022-07-17T05:38:21;12.70;1.00
20231;DHT22;10274;49.022;9.338;2022-07-17T05:40:47;12.90;1.00
20231;DHT22;10274;49.022;9.338;2022-07-17T05:43:14;13.00;1.00
20231;DHT22;10274;49.022;9.338;2022-07-17T05:45:41;13.30;1.00
20231;DHT22;10274;49.022;9.338;2022-07-17T05:48:07;13.40;1.00
20231;DHT22;10274;49.022;9.338;2022-07-17T05:50:35;13.60;1.00
20231;DHT22;10274;49.022;9.338;2022-07-17T05:53:01;13.70;1.00
20231;DHT22;10274;49.022;9.338;2022-07-17T05:55:29;13.90;1.00
20231;DHT22;10274;49.022;9.338;2022-07-17T05:57:56;14.20;99.90
20231;DHT22;10274;49.022;9.338;2022-07-17T06:00:23;14.30;49.50
20231;DHT22;10274;49.022;9.338;2022-07-17T06:02:49;14.50;1.00
20231;DHT22;10274;49.022;9.338;2022-07-17T06:05:16;14.70;1.00
20231;DHT22;10274;49.022;9.338;2022-07-17T06:07:43;15.00;99.90
20231;DHT22;10274;49.022;9.338;2022-07-17T06:10:11;15.30;1.00
20231;DHT22;10274;49.022;9.338;2022-07-17T06:12:39;15.40;99.90
20231;DHT22;10274;49.022;9.338;2022-07-17T06:15:06;15.70;99.90
20231;DHT22;10274;49.022;9.338;2022-07-17T06:17:33;15.90;1.00
20231;DHT22;10274;49.022;9.338;2022-07-17T06:20:00;16.10;1.00
20231;DHT22;10274;49.022;9.338;2022-07-17T06:22:27;16.30;1.00
20231;DHT22;10274;49.022;9.338;2022-07-17T06:24:54;16.50;90.50
20231;DHT22;10274;49.022;9.338;2022-07-17T06:27:20;16.60;1.00
20231;DHT22;10274;49.022;9.338;2022-07-17T06:29:48;16.70;1.00
20231;DHT22;10274;49.022;9.338;2022-07-17T06:32:15;16.90;1.00
20231;DHT22;10274;49.022;9.338;2022-07-17T06:34:42;17.00;1.00
20231;DHT22;10274;49.022;9.338;2022-07-17T06:37:09;17.00;1.00
20231;DHT22;10274;49.022;9.338;2022-07-17T06:39:35;17.20;1.00
20231;DHT22;10274;49.022;9.338;2022-07-17T06:42:02;17.50;1.00
20231;DHT22;10274;49.022;9.338;2022-07-17T06:44:29;17.70;99.90
20231;DHT22;10274;49.022;9.338;2022-07-17T06:46:57;17.80;1.00
20231;DHT22;10274;49.022;9.338;2022-07-17T06:49:24;18.00;1.00
20231;DHT22;10274;49.022;9.338;2022-07-17T06:51:50;18.20;1.00
20231;DHT22;10274;49.022;9.338;2022-07-17T06:54:17;18.40;1.00
20231;DHT22;10274;49.022;9.338;2022-07-17T06:56:44;18.50;99.90
20231;DHT22;10274;49.022;9.338;2022-07-17T06:59:11;18.50;99.90
20231;DHT22;10274;49.022;9.338;2022-07-17T07:01:38;18.80;99.90
20231;DHT22;10274;49.022;9.338;2022-07-17T07:04:06;19.00;1.00
20231;DHT22;10274;49.022;9.338;2022-07-17T07:06:32;19.00;1.00
20231;DHT22;10274;49.022;9.338;2022-07-17T07:08:59;19.10;1.00
20231;DHT22;10274;49.022;9.338;2022-07-17T07:11:26;19.20;99.90
20231;DHT22;10274;49.022;9.338;2022-07-17T07:13:53;19.30;99.90
20231;DHT22;10274;49.022;9.338;2022-07-17T07:16:19;19.50;99.90
20231;DHT22;10274;49.022;9.338;2022-07-17T07:18:46;19.80;99.90
20231;DHT22;10274;49.022;9.338;2022-07-17T07:21:14;20.10;1.00
20231;DHT22;10274;49.022;9.338;2022-07-17T07:23:41;20.10;1.00
20231;DHT22;10274;49.022;9.338;2022-07-17T07:26:08;20.40;99.90
20231;DHT22;10274;49.022;9.338;2022-07-17T07:28:35;20.60;1.00
20231;DHT22;10274;49.022;9.338;2022-07-17T07:31:01;20.80;84.70
20231;DHT22;10274;49.022;9.338;2022-07-17T07:33:28;21.10;1.00
20231;DHT22;10274;49.022;9.338;2022-07-17T07:35:55;21.40;1.00
20231;DHT22;10274;49.022;9.338;2022-07-17T07:38:23;21.40;1.00
20231;DHT22;10274;49.022;9.338;2022-07-17T07:40:49;21.50;99.90
20231;DHT22;10274;49.022;9.338;2022-07-17T07:43:17;21.90;1.00
20231;DHT22;10274;49.022;9.338;2022-07-17T07:45:43;22.00;99.90
20231;DHT22;10274;49.022;9.338;2022-07-17T07:48:10;22.10;99.90
20231;DHT22;10274;49.022;9.338;2022-07-17T07:50:37;22.20;99.90
20231;DHT22;10274;49.022;9.338;2022-07-17T07:53:03;22.10;99.90
20231;DHT22;10274;49.022;9.338;2022-07-17T07:55:32;22.30;99.90
20231;DHT22;10274;49.022;9.338;2022-07-17T07:58:02;22.60;90.00
20231;DHT22;10274;49.022;9.338;2022-07-17T08:00:29;22.60;99.90
20231;DHT22;10274;49.022;9.338;2022-07-17T08:02:56;22.70;1.00
20231;DHT22;10274;49.022;9.338;2022-07-17T08:05:22;22.90;1.00
20231;DHT22;10274;49.022;9.338;2022-07-17T08:07:49;23.20;99.90
20231;DHT22;10274;49.022;9.338;2022-07-17T08:10:16;23.50;1.00
20231;DHT22;10274;49.022;9.338;2022-07-17T08:12:44;25.50;99.90
20231;DHT22;10274;49.022;9.338;2022-07-17T08:15:10;25.90;1.00
20231;DHT22;10274;49.022;9.338;2022-07-17T08:17:37;25.00;99.90
20231;DHT22;10274;49.022;9.338;2022-07-17T08:20:05;24.80;1.00
20231;DHT22;10274;49.022;9.338;2022-07-17T08:22:32;26.60;99.90
20231;DHT22;10274;49.022;9.338;2022-07-17T08:24:59;27.60;1.00
20231;DHT22;10274;49.022;9.338;2022-07-17T08:27:25;27.80;1.00
20231;DHT22;10274;49.022;9.338;2022-07-17T08:29:54;28.30;1.00
20231;DHT22;10274;49.022;9.338;2022-07-17T08:32:20;28.50;1.00
20231;DHT22;10274;49.022;9.338;2022-07-17T08:34:47;28.70;1.00
20231;DHT22;10274;49.022;9.338;2022-07-17T08:37:13;28.30;99.90
20231;DHT22;10274;49.022;9.338;2022-07-17T08:39:40;28.30;1.00
20231;DHT22;10274;49.022;9.338;2022-07-17T08:42:07;28.70;1.00
20231;DHT22;10274;49.022;9.338;2022-07-17T08:44:34;28.70;99.90
20231;DHT22;10274;49.022;9.338;2022-07-17T08:47:02;28.90;99.90
20231;DHT22;10274;49.022;9.338;2022-07-17T08:49:30;28.70;99.90
20231;DHT22;10274;49.022;9.338;2022-07-17T08:51:57;29.60;1.00
20231;DHT22;10274;49.022;9.338;2022-07-17T08:54:24;29.50;1.00
20231;DHT22;10274;49.022;9.338;2022-07-17T08:56:51;29.60;99.90
20231;DHT22;10274;49.022;9.338;2022-07-17T08:59:17;30.00;99.90
20231;DHT22;10274;49.022;9.338;2022-07-17T09:01:44;30.00;99.90
20231;DHT22;10274;49.022;9.338;2022-07-17T09:04:12;30.00;99.90
20231;DHT22;10274;49.022;9.338;2022-07-17T09:06:39;29.70;1.00
20231;DHT22;10274;49.022;9.338;2022-07-17T09:09:07;29.60;99.90
20231;DHT22;10274;49.022;9.338;2022-07-17T09:11:45;30.10;99.90
20231;DHT22;10274;49.022;9.338;2022-07-17T09:14:12;30.60;99.90
20231;DHT22;10274;49.022;9.338;2022-07-17T09:16:48;30.30;99.90
20231;DHT22;10274;49.022;9.338;2022-07-17T09:19:25;29.70;99.90
20231;DHT22;10274;49.022;9.338;2022-07-17T09:22:03;29.90;1.00
20231;DHT22;10274;49.022;9.338;2022-07-17T09:24:39;30.50;99.90
20231;DHT22;10274;49.022;9.338;2022-07-17T09:27:06;30.60;99.90
20231;DHT22;10274;49.022;9.338;2022-07-17T09:29:33;30.50;1.00
20231;DHT22;10274;49.022;9.338;2022-07-17T09:32:00;30.60;1.00
20231;DHT22;10274;49.022;9.338;2022-07-17T09:34:28;31.10;1.00
20231;DHT22;10274;49.022;9.338;2022-07-17T09:36:59;31.00;99.90
20231;DHT22;10274;49.022;9.338;2022-07-17T09:39:34;31.10;99.90
20231;DHT22;10274;49.022;9.338;2022-07-17T09:42:01;31.00;99.90
20231;DHT22;10274;49.022;9.338;2022-07-17T09:44:27;31.00;99.90
20231;DHT22;10274;49.022;9.338;2022-07-17T09:46:55;30.50;1.00
20231;DHT22;10274;49.022;9.338;2022-07-17T09:49:26;30.30;99.90
20231;DHT22;10274;49.022;9.338;2022-07-17T09:51:54;31.00;99.90
20231;DHT22;10274;49.022;9.338;2022-07-17T09:54:22;30.80;99.90
20231;DHT22;10274;49.022;9.338;2022-07-17T09:56:50;30.90;99.90
20231;DHT22;10274;49.022;9.338;2022-07-17T09:59:18;31.00;1.00
20231;DHT22;10274;49.022;9.338;2022-07-17T10:01:45;30.70;1.00
20231;DHT22;10274;49.022;9.338;2022-07-17T10:04:15;30.10;99.90
20231;DHT22;10274;49.022;9.338;2022-07-17T10:06:43;30.70;1.00
20231;DHT22;10274;49.022;9.338;2022-07-17T10:09:11;31.50;99.90
20231;DHT22;10274;49.022;9.338;2022-07-17T10:11:40;31.50;1.00
20231;DHT22;10274;49.022;9.338;2022-07-17T10:14:11;31.90;1.00
20231;DHT22;10274;49.022;9.338;2022-07-17T10:16:38;32.30;1.00
20231;DHT22;10274;49.022;9.338;2022-07-17T10:19:15;32.30;99.90
20231;DHT22;10274;49.022;9.338;2022-07-17T10:21:52;32.10;1.00
20231;DHT22;10274;49.022;9.338;2022-07-17T10:24:21;31.80;1.00
20231;DHT22;10274;49.022;9.338;2022-07-17T10:26:48;32.20;99.90
20231;DHT22;10274;49.022;9.338;2022-07-17T10:29:30;31.40;1.00
20231;DHT22;10274;49.022;9.338;2022-07-17T10:31:58;31.90;99.90
20231;DHT22;10274;49.022;9.338;2022-07-17T10:34:46;32.10;99.90
20231;DHT22;10274;49.022;9.338;2022-07-17T10:37:21;32.80;1.00
20231;DHT22;10274;49.022;9.338;2022-07-17T10:39:58;32.80;99.90
20231;DHT22;10274;49.022;9.338;2022-07-17T10:42:54;32.30;1.00
20231;DHT22;10274;49.022;9.338;2022-07-17T10:45:23;32.40;99.90
20231;DHT22;10274;49.022;9.338;2022-07-17T10:47:53;32.00;1.00
20231;DHT22;10274;49.022;9.338;2022-07-17T10:50:22;32.30;1.00
20231;DHT22;10274;49.022;9.338;2022-07-17T10:53:16;33.00;1.00
20231;DHT22;10274;49.022;9.338;2022-07-17T10:55:47;33.10;99.90
20231;DHT22;10274;49.022;9.338;2022-07-17T10:58:16;32.50;1.00
20231;DHT22;10274;49.022;9.338;2022-07-17T11:00:43;32.30;1.00
20231;DHT22;10274;49.022;9.338;2022-07-17T11:03:10;32.50;1.00
20231;DHT22;10274;49.022;9.338;2022-07-17T11:05:37;32.90;1.00
20231;DHT22;10274;49.022;9.338;2022-07-17T11:08:04;32.30;99.90
20231;DHT22;10274;49.022;9.338;2022-07-17T11:10:35;32.00;1.00
20231;DHT22;10274;49.022;9.338;2022-07-17T11:13:09;32.90;1.00
20231;DHT22;10274;49.022;9.338;2022-07-17T11:15:43;33.20;99.90
20231;DHT22;10274;49.022;9.338;2022-07-17T11:18:12;33.50;1.00
20231;DHT22;10274;49.022;9.338;2022-07-17T11:20:53;33.10;99.90
20231;DHT22;10274;49.022;9.338;2022-07-17T11:23:22;33.20;1.00
20231;DHT22;10274;49.022;9.338;2022-07-17T11:25:57;33.70;99.90
20231;DHT22;10274;49.022;9.338;2022-07-17T11:28:36;33.50;21.90
20231;DHT22;10274;49.022;9.338;2022-07-17T11:31:15;33.00;99.90
20231;DHT22;10274;49.022;9.338;2022-07-17T11:33:47;33.10;99.90
20231;DHT22;10274;49.022;9.338;2022-07-17T11:36:23;32.00;99.90
20231;DHT22;10274;49.022;9.338;2022-07-17T11:38:50;32.50;99.90
20231;DHT22;10274;49.022;9.338;2022-07-17T11:41:17;33.00;99.90
20231;DHT22;10274;49.022;9.338;2022-07-17T11:43:46;33.60;99.90
20231;DHT22;10274;49.022;9.338;2022-07-17T11:46:14;33.40;99.90
20231;DHT22;10274;49.022;9.338;2022-07-17T11:48:42;33.80;83.00
20231;DHT22;10274;49.022;9.338;2022-07-17T11:51:09;32.90;99.90
20231;DHT22;10274;49.022;9.338;2022-07-17T11:53:38;31.90;1.00
20231;DHT22;10274;49.022;9.338;2022-07-17T11:56:05;31.20;1.00
20231;DHT22;10274;49.022;9.338;2022-07-17T11:58:45;31.20;99.90
20231;DHT22;10274;49.022;9.338;2022-07-17T12:01:13;31.30;99.90
20231;DHT22;10274;49.022;9.338;2022-07-17T12:03:40;31.20;92.40
20231;DHT22;10274;49.022;9.338;2022-07-17T12:06:07;31.60;99.90
20231;DHT22;10274;49.022;9.338;2022-07-17T12:08:35;31.70;1.00
20231;DHT22;10274;49.022;9.338;2022-07-17T12:11:04;32.30;1.00
20231;DHT22;10274;49.022;9.338;2022-07-17T12:13:41;32.00;1.00
20231;DHT22;10274;49.022;9.338;2022-07-17T12:16:24;32.50;99.90
20231;DHT22;10274;49.022;9.338;2022-07-17T12:19:07;32.60;1.00
20231;DHT22;10274;49.022;9.338;2022-07-17T12:21:50;32.40;1.00
20231;DHT22;10274;49.022;9.338;2022-07-17T12:24:21;32.30;1.00
20231;DHT22;10274;49.022;9.338;2022-07-17T12:26:47;32.80;99.90
20231;DHT22;10274;49.022;9.338;2022-07-17T12:29:14;32.60;1.00
20231;DHT22;10274;49.022;9.338;2022-07-17T12:31:42;32.70;1.00
20231;DHT22;10274;49.022;9.338;2022-07-17T12:34:09;31.50;1.00
20231;DHT22;10274;49.022;9.338;2022-07-17T12:36:35;31.50;9.00
20231;DHT22;10274;49.022;9.338;2022-07-17T12:39:02;31.60;12.80
20231;DHT22;10274;49.022;9.338;2022-07-17T12:41:29;32.20;1.00
20231;DHT22;10274;49.022;9.338;2022-07-17T12:43:56;31.90;1.00
20231;DHT22;10274;49.022;9.338;2022-07-17T12:46:23;31.50;1.00
20231;DHT22;10274;49.022;9.338;2022-07-17T12:48:51;32.00;1.00
20231;DHT22;10274;49.022;9.338;2022-07-17T12:51:17;31.80;1.00
20231;DHT22;10274;49.022;9.338;2022-07-17T12:53:44;31.90;20.30
20231;DHT22;10274;49.022;9.338;2022-07-17T12:56:11;32.20;21.30
20231;DHT22;10274;49.022;9.338;2022-07-17T12:58:38;32.00;1.00
20231;DHT22;10274;49.022;9.338;2022-07-17T13:01:05;31.50;1.00
20231;DHT22;10274;49.022;9.338;2022-07-17T13:03:32;32.10;84.60
20231;DHT22;10274;49.022;9.338;2022-07-17T13:06:00;32.30;85.80
20231;DHT22;10274;49.022;9.338;2022-07-17T13:08:28;32.50;21.60
20231;DHT22;10274;49.022;9.338;2022-07-17T13:10:55;32.80;99.90
20231;DHT22;10274;49.022;9.338;2022-07-17T13:13:21;32.90;1.00
20231;DHT22;10274;49.022;9.338;2022-07-17T13:15:48;33.10;1.00
20231;DHT22;10274;49.022;9.338;2022-07-17T13:18:15;33.00;1.00
20231;DHT22;10274;49.022;9.338;2022-07-17T13:20:42;32.90;1.00
20231;DHT22;10274;49.022;9.338;2022-07-17T13:23:10;33.30;1.00
20231;DHT22;10274;49.022;9.338;2022-07-17T13:25:37;33.60;1.00
20231;DHT22;10274;49.022;9.338;2022-07-17T13:28:04;33.00;1.00
20231;DHT22;10274;49.022;9.338;2022-07-17T13:30:32;32.80;1.00
20231;DHT22;10274;49.022;9.338;2022-07-17T13:32:59;32.40;99.90
20231;DHT22;10274;49.022;9.338;2022-07-17T13:35:26;32.20;99.90
20231;DHT22;10274;49.022;9.338;2022-07-17T13:37:53;32.30;99.90
20231;DHT22;10274;49.022;9.338;2022-07-17T13:40:21;32.10;99.90
20231;DHT22;10274;49.022;9.338;2022-07-17T13:42:49;31.50;99.90
20231;DHT22;10274;49.022;9.338;2022-07-17T13:45:16;31.90;1.00
20231;DHT22;10274;49.022;9.338;2022-07-17T13:47:44;32.20;1.00
20231;DHT22;10274;49.022;9.338;2022-07-17T13:50:10;31.30;1.00
20231;DHT22;10274;49.022;9.338;2022-07-17T13:52:37;31.80;1.00
20231;DHT22;10274;49.022;9.338;2022-07-17T13:55:05;32.00;99.90
20231;DHT22;10274;49.022;9.338;2022-07-17T13:57:33;32.00;1.00
20231;DHT22;10274;49.022;9.338;2022-07-17T14:00:00;31.70;99.90
20231;DHT22;10274;49.022;9.338;2022-07-17T14:02:27;32.00;99.90
20231;DHT22;10274;49.022;9.338;2022-07-17T14:04:54;32.10;1.00
20231;DHT22;10274;49.022;9.338;2022-07-17T14:07:21;31.80;1.00
20231;DHT22;10274;49.022;9.338;2022-07-17T14:09:47;32.20;1.00
20231;DHT22;10274;49.022;9.338;2022-07-17T14:12:14;32.00;1.00
20231;DHT22;10274;49.022;9.338;2022-07-17T14:14:42;31.90;1.00
20231;DHT22;10274;49.022;9.338;2022-07-17T14:17:09;31.90;1.00
20231;DHT22;10274;49.022;9.338;2022-07-17T14:19:35;31.60;1.00
20231;DHT22;10274;49.022;9.338;2022-07-17T14:22:03;31.70;1.00
20231;DHT22;10274;49.022;9.338;2022-07-17T14:24:30;32.10;99.90
20231;DHT22;10274;49.022;9.338;2022-07-17T14:26:56;32.00;99.90
20231;DHT22;10274;49.022;9.338;2022-07-17T14:29:23;31.90;1.00
20231;DHT22;10274;49.022;9.338;2022-07-17T14:31:51;31.40;1.00
20231;DHT22;10274;49.022;9.338;2022-07-17T14:34:18;30.80;99.90
20231;DHT22;10274;49.022;9.338;2022-07-17T14:36:45;31.40;99.90
20231;DHT22;10274;49.022;9.338;2022-07-17T14:39:12;32.00;1.00
20231;DHT22;10274;49.022;9.338;2022-07-17T14:41:38;31.90;1.00
20231;DHT22;10274;49.022;9.338;2022-07-17T14:44:05;32.00;1.00
20231;DHT22;10274;49.022;9.338;2022-07-17T14:46:32;31.50;1.00
20231;DHT22;10274;49.022;9.338;2022-07-17T14:49:00;31.40;1.00
20231;DHT22;10274;49.022;9.338;2022-07-17T14:51:26;30.90;1.00
20231;DHT22;10274;49.022;9.338;2022-07-17T14:53:53;30.60;99.90
20231;DHT22;10274;49.022;9.338;2022-07-17T14:56:20;30.80;99.90
20231;DHT22;10274;49.022;9.338;2022-07-17T14:58:47;31.40;99.90
20231;DHT22;10274;49.022;9.338;2022-07-17T15:01:13;31.60;1.00
20231;DHT22;10274;49.022;9.338;2022-07-17T15:03:40;31.70;1.00
20231;DHT22;10274;49.022;9.338;2022-07-17T15:06:08;31.50;1.00
20231;DHT22;10274;49.022;9.338;2022-07-17T15:08:35;32.00;66.10
20231;DHT22;10274;49.022;9.338;2022-07-17T15:11:02;32.10;56.40
20231;DHT22;10274;49.022;9.338;2022-07-17T15:13:29;31.80;99.90
20231;DHT22;10274;49.022;9.338;2022-07-17T15:15:56;31.20;99.90
20231;DHT22;10274;49.022;9.338;2022-07-17T15:18:23;31.10;99.90
20231;DHT22;10274;49.022;9.338;2022-07-17T15:20:49;30.80;99.90
20231;DHT22;10274;49.022;9.338;2022-07-17T15:23:17;31.20;99.90
20231;DHT22;10274;49.022;9.338;2022-07-17T15:25:44;31.30;1.00
20231;DHT22;10274;49.022;9.338;2022-07-17T15:28:11;31.40;1.00
20231;DHT22;10274;49.022;9.338;2022-07-17T15:30:38;31.10;1.00
20231;DHT22;10274;49.022;9.338;2022-07-17T15:33:04;31.10;1.00
20231;DHT22;10274;49.022;9.338;2022-07-17T15:35:31;30.90;1.00
20231;DHT22;10274;49.022;9.338;2022-07-17T15:37:58;31.00;1.00
20231;DHT22;10274;49.022;9.338;2022-07-17T15:40:26;30.80;1.00
20231;DHT22;10274;49.022;9.338;2022-07-17T15:42:52;30.70;1.00
20231;DHT22;10274;49.022;9.338;2022-07-17T15:45:19;30.40;1.00